Time;durP1;ratioP1;P1;durP2;ratioP2;P2;SDS_P1;SDS_P2;PMS_P1;PMS_P2;Temp;Humidity;BMP_temperature;BMP_pressure;BME280_temperature;BME280_humidity;BME280_pressure;Samples;Min_cycle;Max_cycle;Signal;HPM_P1;HPM_P2
2024/02/15 00:00:07;;;;;;;11.07;5.47;;;;;;;-8.68;100.00;100741.94;4974621;28;20292;-72
2024/02/15 00:02:44;;;;;;;11.43;5.77;;;;;;;-8.59;100.00;100731.59;5022126;28;20289;-72
2024/02/15 00:05:12;;;;;;;10.43;5.67;;;;;;;-8.69;100.00;100745.38;4943739;28;20304;-72
2024/02/15 00:07:38;;;;;;;12.30;5.87;;;;;;;-8.73;100.00;100738.56;4958324;28;20347;-72
2024/02/15 00:10:05;;;;;;;11.87;6.10;;;;;;;-8.83;100.00;100737.78;4975178;28;20297;-71
2024/02/15 00:12:32;;;;;;;9.67;5.30;;;;;;;-8.69;100.00;100727.38;4974720;28;20380;-71
2024/02/15 00:14:58;;;;;;;13.93;5.97;;;;;;;-8.87;100.00;100730.94;4958638;28;20377;-71
2024/02/15 00:17:25;;;;;;;10.47;5.30;;;;;;;-8.78;100.00;100733.47;4967998;28;20411;-71
2024/02/15 00:19:51;;;;;;;11.77;5.13;;;;;;;-8.96;100.00;100736.16;4995247;28;20081;-71
2024/02/15 00:22:19;;;;;;;10.50;5.47;;;;;;;-8.75;100.00;100728.28;4963366;28;20296;-70
2024/02/15 00:24:45;;;;;;;9.77;5.80;;;;;;;-8.94;100.00;100744.72;4984117;28;20156;-72
2024/02/15 00:27:15;;;;;;;12.83;5.93;;;;;;;-8.95;100.00;100727.59;4969064;28;20299;-71
2024/02/15 00:29:47;;;;;;;10.75;5.63;;;;;;;-8.75;100.00;100728.28;4984414;28;20284;-70
2024/02/15 00:32:14;;;;;;;12.70;5.87;;;;;;;-8.75;100.00;100710.28;5014328;28;20056;-71
2024/02/15 00:34:40;;;;;;;11.97;5.67;;;;;;;-8.77;100.00;100726.56;4977288;28;20342;-71
2024/02/15 00:37:05;;;;;;;11.00;5.73;;;;;;;-8.67;100.00;100723.91;4978001;28;20443;-71
2024/02/15 00:39:31;;;;;;;13.47;5.37;;;;;;;-8.74;100.00;100717.13;4977889;28;20115;-71
2024/02/15 00:42:00;;;;;;;16.00;6.10;;;;;;;-8.79;100.00;100703.41;4977487;28;20042;-71
2024/02/15 00:44:27;;;;;;;16.10;6.40;;;;;;;-8.72;100.00;100709.38;5009964;28;20375;-71
2024/02/15 00:46:56;;;;;;;15.90;6.23;;;;;;;-8.71;100.00;100709.38;4993712;28;20307;-71
2024/02/15 00:49:22;;;;;;;14.67;5.83;;;;;;;-8.82;100.00;100697.47;5017945;28;20297;-71
2024/02/15 00:51:48;;;;;;;14.23;5.70;;;;;;;-8.74;100.00;100704.25;5000258;28;20305;-71
2024/02/15 00:54:17;;;;;;;10.93;5.90;;;;;;;-8.72;100.00;100706.81;5000345;28;20378;-72
2024/02/15 00:56:47;;;;;;;10.27;5.63;;;;;;;-8.88;100.00;100708.66;5016931;28;20045;-72
2024/02/15 00:59:14;;;;;;;10.30;5.83;;;;;;;-8.85;100.00;100708.63;5033238;28;20385;-71
2024/02/15 01:01:41;;;;;;;22.40;6.13;;;;;;;-8.95;100.00;100699.28;5019044;28;20707;-71
2024/02/15 01:04:13;;;;;;;10.87;5.53;;;;;;;-8.74;100.00;100699.09;5020961;28;20148;-71
2024/02/15 01:06:39;;;;;;;14.68;6.35;;;;;;;-8.90;100.00;100697.50;5038841;28;20299;-71
2024/02/15 01:09:05;;;;;;;15.33;5.60;;;;;;;-8.97;100.00;100693.28;5023892;28;20048;-71
2024/02/15 01:11:32;;;;;;;13.33;6.00;;;;;;;-8.99;100.00;100679.56;5023623;28;20087;-71
2024/02/15 01:14:02;;;;;;;11.70;6.30;;;;;;;-9.02;100.00;100702.75;5023957;28;20372;-70
2024/02/15 01:16:29;;;;;;;10.93;6.03;;;;;;;-8.99;100.00;100706.16;5040400;28;20290;-70
2024/02/15 01:19:00;;;;;;;10.83;5.93;;;;;;;-9.06;100.00;100689.06;5057000;28;20364;-70
2024/02/15 01:21:31;;;;;;;13.83;6.27;;;;;;;-8.84;100.00;100708.59;5073741;28;20768;-70
2024/02/15 01:24:00;;;;;;;11.33;5.80;;;;;;;-8.84;100.00;100705.19;5040525;28;20375;-71
2024/02/15 01:26:26;;;;;;;18.30;6.50;;;;;;;-8.88;100.00;100686.34;5040018;28;20402;-70
2024/02/15 01:28:53;;;;;;;10.83;6.20;;;;;;;-8.65;100.00;100693.00;5040114;28;20616;-70
2024/02/15 01:31:20;;;;;;;11.37;5.83;;;;;;;-8.84;100.00;100705.19;5007063;28;20410;-70
2024/02/15 01:33:49;;;;;;;13.65;6.15;;;;;;;-8.95;100.00;100728.41;5021173;28;20314;-70
2024/02/15 01:36:16;;;;;;;12.37;6.13;;;;;;;-8.83;100.00;100709.47;5004338;28;20155;-70
2024/02/15 01:38:43;;;;;;;9.73;5.63;;;;;;;-8.79;100.00;100698.28;5019956;28;20287;-71
2024/02/15 01:41:10;;;;;;;11.27;5.87;;;;;;;-8.92;100.00;100694.09;5003830;28;20431;-70
2024/02/15 01:43:36;;;;;;;11.40;6.00;;;;;;;-8.92;100.00;100710.38;5036643;28;20290;-70
2024/02/15 01:46:08;;;;;;;12.10;5.73;;;;;;;-8.85;100.00;100701.75;5019354;28;20303;-70
2024/02/15 01:48:37;;;;;;;16.93;6.27;;;;;;;-8.88;100.00;100688.91;5053586;28;20280;-70
2024/02/15 01:51:08;;;;;;;10.60;5.43;;;;;;;-8.97;100.00;100717.31;5036961;28;20283;-70
2024/02/15 01:53:34;;;;;;;13.00;6.97;;;;;;;-8.97;100.00;100691.56;5003664;28;20323;-71
2024/02/15 01:56:00;;;;;;;12.60;5.80;;;;;;;-9.20;100.00;100697.75;5003441;28;20370;-70
2024/02/15 01:58:27;;;;;;;12.50;6.70;;;;;;;-8.91;100.00;100726.69;4987534;28;20327;-70
2024/02/15 02:00:56;;;;;;;11.13;5.43;;;;;;;-9.06;100.00;100706.22;4988190;28;20283;-70
2024/02/15 02:03:27;;;;;;;10.73;5.55;;;;;;;-8.94;100.00;100698.41;5020911;28;20275;-71
2024/02/15 02:05:56;;;;;;;10.75;5.78;;;;;;;-8.85;100.00;100721.50;5019310;28;20134;-70
2024/02/15 02:08:22;;;;;;;10.40;5.60;;;;;;;-9.09;100.00;100703.66;4986924;28;20152;-70
2024/02/15 02:10:50;;;;;;;11.97;5.77;;;;;;;-8.97;100.00;100716.44;5019712;28;20045;-70
2024/02/15 02:13:17;;;;;;;13.80;6.30;;;;;;;-9.12;100.00;100713.97;5002582;28;20390;-70
2024/02/15 02:15:43;;;;;;;14.47;6.83;;;;;;;-9.13;100.00;100707.13;5002631;28;20840;-71
2024/02/15 02:18:10;;;;;;;11.50;5.23;;;;;;;-8.95;100.00;100712.97;5003550;28;20044;-70
2024/02/15 02:20:37;;;;;;;15.27;6.27;;;;;;;-8.95;100.00;100704.44;5036669;28;20552;-71
2024/02/15 02:23:10;;;;;;;11.87;5.77;;;;;;;-8.76;100.00;100715.44;5019547;28;20374;-70
2024/02/15 02:25:39;;;;;;;10.30;5.43;;;;;;;-8.79;100.00;100693.13;4986215;28;20044;-70
2024/02/15 02:28:07;;;;;;;13.60;6.37;;;;;;;-8.83;100.00;100717.19;5003167;28;20396;-71
2024/02/15 02:30:32;;;;;;;12.90;5.80;;;;;;;-8.97;100.00;100708.72;4967712;28;20292;-71
2024/02/15 02:33:00;;;;;;;11.97;6.00;;;;;;;-8.79;100.00;100711.13;4967475;28;20319;-71
2024/02/15 02:35:26;;;;;;;13.60;5.67;;;;;;;-8.71;100.00;100723.94;4999480;28;20074;-70
2024/02/15 02:37:54;;;;;;;13.30;5.97;;;;;;;-8.75;100.00;100699.97;4983392;28;20284;-70
2024/02/15 02:40:31;;;;;;;12.07;6.27;;;;;;;-8.68;100.00;100717.06;4976321;28;20680;-70
2024/02/15 02:43:01;;;;;;;10.03;5.80;;;;;;;-8.65;100.00;100724.75;4938165;28;20291;-70
2024/02/15 02:45:28;;;;;;;15.40;5.60;;;;;;;-8.65;100.00;100714.44;4906204;29;20286;-70
2024/02/15 02:47:54;;;;;;;10.37;5.20;;;;;;;-8.66;100.00;100720.47;4934253;29;20374;-70
2024/02/15 02:50:22;;;;;;;14.50;5.60;;;;;;;-8.64;100.00;100717.91;4965692;28;20048;-70
2024/02/15 02:52:48;;;;;;;13.90;6.00;;;;;;;-8.66;100.00;100725.63;4949629;28;20391;-71
2024/02/15 02:55:20;;;;;;;17.97;6.80;;;;;;;-8.54;100.00;100714.34;4950293;28;20401;-71
2024/02/15 02:57:46;;;;;;;14.33;6.37;;;;;;;-8.70;100.00;100723.09;4933813;28;20495;-71
2024/02/15 03:00:16;;;;;;;15.53;6.87;;;;;;;-8.72;100.00;100728.25;4955818;28;20279;-71
2024/02/15 03:02:43;;;;;;;16.98;5.90;;;;;;;-8.73;100.00;100726.53;4956552;28;20042;-66
2024/02/15 03:05:11;;;;;;;13.47;6.03;;;;;;;-8.64;100.00;100733.34;4940450;28;20061;-65
2024/02/15 03:07:44;;;;;;;11.37;6.10;;;;;;;-8.69;100.00;100735.97;4955919;28;20660;-66
2024/02/15 03:10:15;;;;;;;12.30;5.30;;;;;;;-8.64;100.00;100729.03;4925188;28;20369;-66
2024/02/15 03:12:46;;;;;;;11.90;5.83;;;;;;;-8.60;100.00;100725.56;4991966;28;20300;-66
2024/02/15 03:15:17;;;;;;;12.67;6.10;;;;;;;-8.49;100.00;100726.34;4944506;28;20270;-66
2024/02/15 03:17:48;;;;;;;9.52;5.75;;;;;;;-8.55;100.00;100722.97;4976000;28;20372;-65
2024/02/15 03:20:23;;;;;;;13.73;6.13;;;;;;;-8.59;100.00;100711.81;5002098;28;20154;-66
2024/02/15 03:22:58;;;;;;;12.43;5.83;;;;;;;-8.61;100.00;100723.88;5051879;28;20467;-65
2024/02/15 03:25:31;;;;;;;17.27;6.77;;;;;;;-8.72;100.00;100728.25;5013294;28;20295;-65
2024/02/15 03:28:04;;;;;;;13.33;6.70;;;;;;;-8.62;100.00;100726.47;5014985;28;20284;-65
2024/02/15 03:30:31;;;;;;;13.53;6.13;;;;;;;-8.64;100.00;100718.72;4983358;28;20288;-65
2024/02/15 03:32:58;;;;;;;10.30;5.60;;;;;;;-8.65;100.00;100724.75;5000396;28;20817;-66
2024/02/15 03:35:26;;;;;;;12.70;5.87;;;;;;;-8.71;100.00;100724.81;4965583;28;20382;-66
2024/02/15 03:37:52;;;;;;;12.77;6.17;;;;;;;-8.68;100.00;100735.06;4999085;28;20405;-66
2024/02/15 03:40:26;;;;;;;12.33;6.40;;;;;;;-8.59;100.00;100731.59;4982128;28;20725;-65
2024/02/15 03:42:55;;;;;;;37.50;7.57;;;;;;;-8.60;100.00;100745.31;4981980;28;20481;-65
2024/02/15 03:45:24;;;;;;;12.80;6.13;;;;;;;-8.61;100.00;100733.31;5014186;28;20362;-65
2024/02/15 03:47:55;;;;;;;14.90;6.50;;;;;;;-8.58;100.00;100730.72;4997425;28;20306;-65
2024/02/15 03:50:28;;;;;;;16.43;7.20;;;;;;;-8.62;100.00;100758.19;4997583;28;20300;-65
2024/02/15 03:52:55;;;;;;;15.32;6.18;;;;;;;-8.53;100.00;100740.09;4981822;28;20342;-65
2024/02/15 03:55:22;;;;;;;10.27;5.53;;;;;;;-8.49;100.00;100736.63;4997486;28;20518;-66
2024/02/15 03:57:50;;;;;;;12.93;6.40;;;;;;;-8.50;100.00;100752.94;4980993;28;20276;-69
2024/02/15 04:00:20;;;;;;;15.13;6.30;;;;;;;-8.55;100.00;100748.72;4962439;28;20289;-66
2024/02/15 04:02:48;;;;;;;11.48;6.30;;;;;;;-8.52;100.00;100752.13;4978778;28;20276;-66
2024/02/15 04:05:19;;;;;;;11.30;6.13;;;;;;;-8.49;100.00;100759.81;4978683;28;20099;-69
2024/02/15 04:07:46;;;;;;;13.70;6.50;;;;;;;-8.43;100.00;100744.31;4994425;28;20284;-66
2024/02/15 04:10:18;;;;;;;12.83;6.87;;;;;;;-8.40;100.00;100746.84;4993702;28;20458;-65
2024/02/15 04:13:02;;;;;;;14.50;6.63;;;;;;;-8.42;100.00;100745.13;4982492;28;20299;-66
2024/02/15 04:15:30;;;;;;;13.43;6.47;;;;;;;-8.50;100.00;100752.94;5013135;28;20053;-73
2024/02/15 04:18:01;;;;;;;10.67;5.63;;;;;;;-8.35;100.00;100754.53;4981240;28;20284;-71
2024/02/15 04:20:28;;;;;;;20.03;6.90;;;;;;;-8.40;100.00;100753.72;4981338;28;20836;-70
2024/02/15 04:22:57;;;;;;;14.57;5.90;;;;;;;-8.42;100.00;100756.31;4998408;28;20284;-70
2024/02/15 04:25:28;;;;;;;9.98;5.45;;;;;;;-8.36;100.00;100745.94;4981908;28;20335;-72
2024/02/15 04:28:03;;;;;;;20.67;6.27;;;;;;;-8.38;100.00;100752.84;5000274;28;20127;-70
2024/02/15 04:30:31;;;;;;;26.53;6.10;;;;;;;-8.37;100.00;100727.94;4966244;28;20354;-70
2024/02/15 04:33:05;;;;;;;15.00;6.07;;;;;;;-8.29;100.00;100747.63;4964332;28;20384;-73
2024/02/15 04:35:33;;;;;;;15.07;5.60;;;;;;;-8.29;100.00;100759.63;4977962;28;20292;-72
2024/02/15 04:38:03;;;;;;;12.93;6.80;;;;;;;-8.26;100.00;100754.44;4966803;28;20358;-71
2024/02/15 04:40:39;;;;;;;13.03;6.00;;;;;;;-8.24;100.00;100758.69;4987157;28;20038;-70
2024/02/15 04:43:40;;;;;;;10.18;5.35;;;;;;;-8.13;100.00;100749.13;5014118;28;20764;-75
2024/02/15 04:46:21;;;;;;;16.33;5.30;;;;;;;-8.27;100.00;100739.88;4963775;28;20043;-74
2024/02/15 04:49:03;;;;;;;11.83;5.77;;;;;;;-8.14;100.00;100738.81;4974562;28;20286;-74
2024/02/15 04:51:31;;;;;;;11.00;5.27;;;;;;;-8.16;100.00;100754.31;4981347;28;20381;-73
2024/02/15 04:54:02;;;;;;;11.30;5.67;;;;;;;-8.12;100.00;100740.53;4950474;29;20279;-73
2024/02/15 04:56:37;;;;;;;14.03;5.60;;;;;;;-8.17;100.00;100752.59;4930940;29;20322;-76
2024/02/15 04:59:08;;;;;;;15.83;6.93;;;;;;;-8.13;100.00;100758.59;4966660;28;20358;-73
2024/02/15 05:01:42;;;;;;;10.93;5.60;;;;;;;-8.06;100.00;100745.63;4958251;28;20592;-74
2024/02/15 05:04:24;;;;;;;11.20;4.97;;;;;;;-7.96;100.00;100757.53;4942518;28;20813;-73
2024/02/15 05:07:16;;;;;;;13.97;5.13;;;;;;;-8.01;100.00;100763.63;4973516;28;20496;-74
2024/02/15 05:09:53;;;;;;;;;;;;;;;-7.85;100.00;100780.59;4947093;28;20285;-73
2024/02/15 05:12:24;;;;;;;12.03;4.60;;;;;;;-7.93;100.00;100783.28;4995065;28;19926;-71
2024/02/15 05:14:53;;;;;;;9.75;5.15;;;;;;;-7.92;100.00;100779.84;4994067;28;20289;-73
2024/02/15 05:17:28;;;;;;;8.27;4.10;;;;;;;-7.86;100.00;100773.75;4980459;28;20089;-75
2024/02/15 05:19:54;;;;;;;10.47;5.00;;;;;;;-7.96;100.00;100775.56;4979621;28;20284;-73
2024/02/15 05:22:20;;;;;;;9.67;4.73;;;;;;;-7.93;100.00;100774.72;4980524;28;20362;-73
2024/02/15 05:24:51;;;;;;;12.50;4.70;;;;;;;-7.87;100.00;100779.78;4979467;28;20113;-72
2024/02/15 05:27:20;;;;;;;10.50;5.07;;;;;;;-7.91;100.00;100773.81;5013878;28;20088;-73
2024/02/15 05:29:52;;;;;;;5.53;3.23;;;;;;;-7.81;100.00;100777.16;4980369;28;20289;-72
2024/02/15 05:32:20;;;;;;;8.73;3.60;;;;;;;-7.79;100.00;100783.97;4999337;28;20280;-72
2024/02/15 05:34:47;;;;;;;8.47;4.37;;;;;;;-7.76;100.00;100786.53;4980746;28;20296;-72
2024/02/15 05:37:24;;;;;;;7.47;4.30;;;;;;;-7.76;100.00;100790.81;4996676;28;20299;-72
2024/02/15 05:39:53;;;;;;;8.40;4.53;;;;;;;-7.83;100.00;100809.81;4997427;28;20296;-72
2024/02/15 05:42:26;;;;;;;6.90;3.60;;;;;;;-7.80;100.00;100802.03;4980299;28;20299;-72
2024/02/15 05:44:52;;;;;;;6.47;3.73;;;;;;;-7.79;100.00;100804.59;4951046;28;20394;-72
2024/02/15 05:47:19;;;;;;;7.13;3.57;;;;;;;-7.74;100.00;100808.00;5003696;28;20358;-73
2024/02/15 05:49:47;;;;;;;7.80;3.60;;;;;;;-7.77;100.00;100825.22;5036211;28;20087;-76
2024/02/15 05:52:14;;;;;;;5.23;3.60;;;;;;;-7.72;100.00;100820.88;5052802;28;20298;-75
2024/02/15 05:54:41;;;;;;;6.90;3.77;;;;;;;-7.71;100.00;100820.00;5034922;28;20283;-76
2024/02/15 05:57:07;;;;;;;7.03;3.37;;;;;;;-7.72;100.00;100828.59;5002167;28;20041;-75
2024/02/15 05:59:32;;;;;;;6.57;3.20;;;;;;;-7.75;100.00;100831.22;5036924;28;20326;-75
2024/02/15 06:01:58;;;;;;;5.97;3.13;;;;;;;-7.66;100.00;100834.56;5027296;28;20043;-75
2024/02/15 06:04:26;;;;;;;4.83;3.17;;;;;;;-7.69;100.00;100824.28;5019405;28;20107;-71
2024/02/15 06:06:53;;;;;;;5.93;3.30;;;;;;;-7.62;100.00;100850.84;5018553;28;20510;-75
2024/02/15 06:09:21;;;;;;;6.33;3.30;;;;;;;-7.64;100.00;100858.59;4998291;28;20280;-74
2024/02/15 06:11:47;;;;;;;7.30;4.33;;;;;;;-7.70;100.00;100878.47;4997828;28;20764;-74
2024/02/15 06:14:13;;;;;;;9.50;3.83;;;;;;;-7.75;100.00;100878.47;4982848;28;20742;-76
2024/02/15 06:16:43;;;;;;;7.63;4.23;;;;;;;-7.77;100.00;100895.69;5019164;28;20478;-75
2024/02/15 06:19:09;;;;;;;6.32;4.15;;;;;;;-7.91;100.00;100866.59;5054459;28;20047;-76
2024/02/15 06:21:35;;;;;;;7.20;4.27;;;;;;;-7.94;100.00;100873.50;5054220;28;20049;-76
2024/02/15 06:24:00;;;;;;;7.20;4.07;;;;;;;-7.94;100.00;100864.06;5037336;28;20053;-76
2024/02/15 06:26:26;;;;;;;5.73;3.40;;;;;;;-7.89;100.00;100859.72;5034196;28;20041;-75
2024/02/15 06:39:49;;;;;;;4.83;2.90;;;;;;;-7.82;100.00;100868.22;4978468;28;20697;-74
2024/02/15 06:42:17;;;;;;;5.07;2.70;;;;;;;-7.83;100.00;100871.69;4994857;28;20292;-73
2024/02/15 06:44:48;;;;;;;5.50;3.23;;;;;;;-7.76;100.00;100889.66;4962127;28;20195;-74
2024/02/15 06:47:16;;;;;;;4.90;2.97;;;;;;;-7.82;100.00;100871.69;4992507;28;20402;-75
2024/02/15 06:49:43;;;;;;;5.33;3.27;;;;;;;-7.84;100.00;100873.41;5014336;28;20057;-73
2024/02/15 06:52:11;;;;;;;4.90;3.00;;;;;;;-7.82;100.00;100876.84;4997615;28;20292;-72
2024/02/15 06:54:40;;;;;;;4.53;2.83;;;;;;;-7.78;100.00;100865.59;4997388;28;20307;-72
2024/02/15 06:57:06;;;;;;;5.77;3.30;;;;;;;-7.79;100.00;100875.94;5013888;28;20354;-73
2024/02/15 06:59:33;;;;;;;4.33;2.70;;;;;;;-7.79;100.00;100883.66;4997213;28;20292;-72
2024/02/15 07:01:59;;;;;;;5.97;2.83;;;;;;;-7.79;100.00;100874.22;5013245;28;20359;-75
2024/02/15 07:04:28;;;;;;;5.67;3.27;;;;;;;-7.86;100.00;100885.47;5004248;28;20331;-70
2024/02/15 07:06:56;;;;;;;6.97;3.80;;;;;;;-7.93;100.00;100875.25;5034419;28;20299;-73
2024/02/15 07:09:24;;;;;;;5.63;3.73;;;;;;;-7.89;100.00;100885.50;5019128;28;20291;-72
2024/02/15 07:11:52;;;;;;;6.63;3.43;;;;;;;-7.80;100.00;100897.44;5050928;28;20284;-71
2024/02/15 07:14:19;;;;;;;8.68;4.00;;;;;;;-7.87;100.00;100870.84;5035169;28;20286;-71
2024/02/15 07:16:46;;;;;;;6.70;3.73;;;;;;;-7.83;100.00;100894.91;5050772;28;20049;-72
2024/02/15 07:19:13;;;;;;;6.57;3.30;;;;;;;-7.85;100.00;100878.56;5034249;28;20044;-74
2024/02/15 07:21:38;;;;;;;6.33;2.80;;;;;;;-7.85;100.00;100868.25;5051065;28;20875;-73
2024/02/15 07:24:04;;;;;;;5.80;3.30;;;;;;;-7.82;100.00;100873.38;5051729;28;20284;-72
2024/02/15 07:26:30;;;;;;;6.87;3.30;;;;;;;-7.83;100.00;100872.56;5051052;28;20045;-72
2024/02/15 07:28:57;;;;;;;5.10;2.80;;;;;;;-7.83;100.00;100871.69;5050868;28;20287;-73
2024/02/15 07:31:23;;;;;;;6.73;3.60;;;;;;;-7.85;100.00;100882.03;5034240;28;20040;-72
2024/02/15 07:33:51;;;;;;;4.70;3.00;;;;;;;-7.80;100.00;100872.53;5050899;28;20407;-74
2024/02/15 07:36:23;;;;;;;5.07;3.30;;;;;;;-7.79;100.00;100878.50;5017478;28;20347;-68
2024/02/15 07:38:53;;;;;;;6.90;3.50;;;;;;;-7.82;100.00;100905.19;5019377;28;20287;-76
2024/02/15 07:41:22;;;;;;;8.32;3.65;;;;;;;-7.89;100.00;100876.91;5021854;28;20373;-77
2024/02/15 07:43:52;;;;;;;4.57;2.67;;;;;;;-7.79;100.00;100888.81;5039644;28;20057;-76
2024/02/15 07:46:18;;;;;;;6.35;3.50;;;;;;;-7.90;100.00;100888.09;5025961;28;20302;-74
2024/02/15 07:48:45;;;;;;;6.27;3.30;;;;;;;-7.88;100.00;100896.66;5013197;28;20053;-75
2024/02/15 07:51:15;;;;;;;6.00;3.30;;;;;;;-7.84;100.00;100886.28;5039828;28;20040;-76
2024/02/15 07:53:40;;;;;;;6.27;3.17;;;;;;;-7.81;100.00;100883.69;5055057;28;20338;-77
2024/02/15 07:56:06;;;;;;;4.87;3.07;;;;;;;-7.74;100.00;100897.38;5037712;28;20295;-75
2024/02/15 07:58:32;;;;;;;4.53;2.20;;;;;;;-7.70;100.00;100881.03;5039897;28;20383;-74
2024/02/15 08:00:59;;;;;;;2.77;2.10;;;;;;;-7.59;100.00;100876.59;5012435;28;20052;-73
2024/02/15 08:03:26;;;;;;;1.67;1.50;;;;;;;-7.50;100.00;100892.84;5039819;28;20134;-70
2024/02/15 08:05:52;;;;;;;5.63;3.60;;;;;;;-7.48;100.00;100888.53;4978711;28;20306;-73
2024/02/15 08:08:18;;;;;;;4.03;2.23;;;;;;;-7.41;100.00;100900.47;5043022;28;20275;-72
2024/02/15 08:10:45;;;;;;;5.67;3.27;;;;;;;-7.36;100.00;100913.31;5038062;28;20224;-71
2024/02/15 08:13:10;;;;;;;5.93;3.63;;;;;;;-7.36;100.00;100906.44;5037955;28;20455;-74
2024/02/15 08:15:36;;;;;;;5.30;3.10;;;;;;;-7.30;100.00;100906.38;4992619;28;20302;-72
2024/02/15 08:18:05;;;;;;;5.93;3.90;;;;;;;-7.29;100.00;100902.91;5022634;28;20037;-73
2024/02/15 08:20:31;;;;;;;6.30;2.90;;;;;;;-7.26;100.00;100915.78;4992758;28;20045;-73
2024/02/15 08:22:59;;;;;;;4.50;2.93;;;;;;;-7.23;100.00;100915.78;5015819;28;20283;-72
2024/02/15 08:25:25;;;;;;;5.77;3.20;;;;;;;-7.17;100.00;100892.47;5003034;28;20288;-74
2024/02/15 08:27:51;;;;;;;3.57;2.10;;;;;;;-7.11;100.00;100907.03;4984441;28;20299;-75
2024/02/15 08:30:17;;;;;;;4.30;2.20;;;;;;;-7.11;100.00;100894.13;5007399;28;20292;-73
2024/02/15 08:32:43;;;;;;;3.00;2.00;;;;;;;-7.01;100.00;100893.13;5040850;28;20064;-78
2024/02/15 08:35:10;;;;;;;4.20;2.60;;;;;;;-7.03;100.00;100890.56;5040336;28;20040;-76
2024/02/15 08:37:37;;;;;;;4.67;2.50;;;;;;;-6.99;100.00;100903.47;5039356;28;20779;-75
2024/02/15 08:40:10;;;;;;;4.23;2.70;;;;;;;-6.99;100.00;100896.56;5038989;28;20292;-75
2024/02/15 08:42:38;;;;;;;5.30;3.07;;;;;;;-6.99;100.00;100906.88;5041061;28;20287;-75
2024/02/15 08:45:05;;;;;;;3.00;2.47;;;;;;;-6.97;100.00;100902.56;5058537;28;20811;-75
2024/02/15 08:47:30;;;;;;;3.80;2.50;;;;;;;-6.96;100.00;100906.00;5010428;28;20308;-76
2024/02/15 08:49:58;;;;;;;2.67;1.87;;;;;;;-6.91;100.00;100907.66;5005945;28;20295;-72
2024/02/15 08:52:26;;;;;;;4.97;2.40;;;;;;;-6.88;100.00;100901.56;4997732;28;20048;-73
2024/02/15 08:54:54;;;;;;;3.63;2.40;;;;;;;-6.84;100.00;100896.34;5014034;28;20308;-74
2024/02/15 08:57:19;;;;;;;3.13;2.00;;;;;;;-6.81;100.00;100895.47;5031016;28;20288;-74
2024/02/15 08:59:45;;;;;;;3.83;2.17;;;;;;;-6.74;100.00;100920.34;5030418;28;20292;-75
2024/02/15 09:02:11;;;;;;;4.03;2.60;;;;;;;-6.73;100.00;100915.16;5019060;28;20049;-74
2024/02/15 09:04:37;;;;;;;5.10;3.13;;;;;;;-6.72;100.00;100924.63;5031730;28;20045;-76
2024/02/15 09:07:04;;;;;;;3.63;1.87;;;;;;;-6.67;100.00;100920.22;5030485;28;20088;-76
2024/02/15 09:09:31;;;;;;;2.77;2.03;;;;;;;-6.62;100.00;100917.59;5028414;28;20057;-76
2024/02/15 09:11:57;;;;;;;3.80;2.30;;;;;;;-6.64;100.00;100909.03;5007617;28;20287;-75
2024/02/15 09:14:23;;;;;;;6.27;3.27;;;;;;;-6.63;100.00;100911.59;5037714;28;20282;-75
2024/02/15 09:16:48;;;;;;;6.80;3.70;;;;;;;-6.65;100.00;100920.22;4978971;28;20180;-75
2024/02/15 09:19:14;;;;;;;5.60;3.00;;;;;;;-6.63;100.00;100924.50;5028105;28;20287;-72
2024/02/15 09:21:40;;;;;;;6.43;3.80;;;;;;;-6.63;100.00;100918.47;5017444;28;20045;-75
2024/02/15 09:24:06;;;;;;;5.67;2.43;;;;;;;-6.66;100.00;100908.19;5043071;28;20436;-75
2024/02/15 09:26:31;;;;;;;5.57;3.57;;;;;;;-6.62;100.00;100923.63;5018087;28;20377;-74
2024/02/15 09:29:00;;;;;;;6.93;3.70;;;;;;;-6.56;100.00;100928.69;5017945;28;20356;-71
2024/02/15 09:31:26;;;;;;;4.27;3.10;;;;;;;-6.60;100.00;100949.44;5000582;28;20468;-70
2024/02/15 09:33:52;;;;;;;5.93;2.90;;;;;;;-6.60;100.00;100913.25;5017551;28;20342;-75
2024/02/15 09:36:18;;;;;;;5.10;3.17;;;;;;;-6.58;100.00;100925.28;4999948;28;20081;-74
2024/02/15 09:38:44;;;;;;;6.93;3.70;;;;;;;-6.64;100.00;100907.28;4999745;28;20060;-76
2024/02/15 09:41:09;;;;;;;5.77;3.40;;;;;;;-6.58;100.00;100921.84;5017212;28;20057;-76
2024/02/15 09:43:36;;;;;;;5.90;2.80;;;;;;;-6.56;100.00;100917.50;5000202;28;20162;-75
2024/02/15 09:46:06;;;;;;;6.03;3.67;;;;;;;-6.58;100.00;100932.19;5016729;28;20327;-74
2024/02/15 09:48:32;;;;;;;4.13;2.55;;;;;;;-6.53;100.00;100926.06;5033201;28;20067;-76
2024/02/15 09:50:58;;;;;;;4.87;2.90;;;;;;;-6.54;100.00;100926.09;5017726;28;20124;-76
2024/02/15 09:53:25;;;;;;;5.70;3.87;;;;;;;-6.60;100.00;100911.53;5012825;28;20037;-76
2024/02/15 09:56:03;;;;;;;8.40;4.33;;;;;;;-6.54;100.00;100936.44;5026520;28;20316;-76
2024/02/15 09:58:33;;;;;;;9.40;4.27;;;;;;;-6.63;100.00;100921.91;5034046;28;20367;-75
2024/02/15 10:01:06;;;;;;;5.60;3.27;;;;;;;-6.54;100.00;100931.25;5033508;28;20095;-75
2024/02/15 10:03:40;;;;;;;5.40;3.60;;;;;;;-6.57;100.00;100926.13;5016401;28;20046;-75
2024/02/15 10:06:06;;;;;;;8.43;3.70;;;;;;;-6.60;100.00;100932.22;5000013;28;20754;-76
2024/02/15 10:08:32;;;;;;;7.03;3.90;;;;;;;-6.57;100.00;100927.00;5032132;28;20773;-75
2024/02/15 10:11:10;;;;;;;5.97;3.30;;;;;;;-6.46;100.00;100930.31;4983807;28;20371;-73
2024/02/15 10:13:37;;;;;;;6.03;3.27;;;;;;;-6.49;100.00;100914.84;4999248;28;20060;-75
2024/02/15 10:16:26;;;;;;;3.87;2.30;;;;;;;-6.35;100.00;100907.72;5016196;28;20302;-73
2024/02/15 10:19:09;;;;;;;4.97;2.87;;;;;;;-6.34;100.00;100912.03;5046260;28;20074;-72
2024/02/15 10:21:35;;;;;;;;;;;;;;;-6.26;100.00;100923.13;4990797;28;20041;-76
2024/02/15 10:24:05;;;;;;;8.87;3.57;;;;;;;-6.30;100.00;100921.44;5000312;28;19921;-75
2024/02/15 10:26:34;;;;;;;6.27;3.80;;;;;;;-6.37;100.00;100917.25;5016142;28;20069;-75
2024/02/15 10:29:14;;;;;;;7.20;3.63;;;;;;;-6.30;100.00;100929.19;5016223;28;20391;-76
2024/02/15 10:31:55;;;;;;;7.27;3.97;;;;;;;-6.29;100.00;100919.72;4998888;28;20774;-74
2024/02/15 10:34:25;;;;;;;5.33;3.20;;;;;;;-6.34;100.00;100919.78;5016038;28;20056;-70
2024/02/15 10:37:11;;;;;;;8.67;4.50;;;;;;;-6.30;100.00;100923.16;5021123;28;20065;-73
2024/02/15 10:39:36;;;;;;;4.83;3.63;;;;;;;-6.31;100.00;100936.97;5017232;28;20041;-77
2024/02/15 10:42:06;;;;;;;5.20;2.77;;;;;;;-6.19;100.00;100927.31;5015420;28;20067;-76
2024/02/15 10:44:33;;;;;;;4.47;2.53;;;;;;;-6.26;100.00;100911.91;5016616;28;20468;-74
2024/02/15 10:47:06;;;;;;;4.93;2.80;;;;;;;-6.17;100.00;100914.34;5037261;28;20299;-71
2024/02/15 10:49:35;;;;;;;5.73;3.40;;;;;;;-6.14;100.00;100925.50;5001236;28;20508;-74
2024/02/15 10:52:06;;;;;;;5.53;3.53;;;;;;;-6.21;100.00;100928.22;5015963;28;20065;-74
2024/02/15 10:54:31;;;;;;;4.85;2.63;;;;;;;-6.25;100.00;100921.38;5016448;28;20057;-74
2024/02/15 10:57:04;;;;;;;8.17;4.37;;;;;;;-6.07;100.00;100949.53;5016063;28;20072;-74
2024/02/15 10:59:37;;;;;;;7.23;4.00;;;;;;;-6.07;100.00;100944.34;5000945;28;20374;-74
2024/02/15 11:02:31;;;;;;;6.07;4.00;;;;;;;-6.00;100.00;100930.47;4995622;28;20228;-74
2024/02/15 11:05:20;;;;;;;5.40;3.10;;;;;;;-6.07;100.00;100924.53;4995040;28;20045;-74
2024/02/15 11:07:47;;;;;;;5.10;3.07;;;;;;;-6.05;100.00;100922.78;4979052;28;20304;-75
2024/02/15 11:10:17;;;;;;;5.60;3.40;;;;;;;-6.04;100.00;100921.06;4994166;28;20152;-75
2024/02/15 11:12:44;;;;;;;6.47;3.57;;;;;;;-6.02;100.00;100929.63;4993277;28;20521;-74
2024/02/15 11:15:12;;;;;;;5.00;2.90;;;;;;;-5.98;100.00;100929.56;4994943;28;20480;-73
2024/02/15 11:17:40;;;;;;;6.13;3.73;;;;;;;-5.97;100.00;100931.28;5009895;28;20452;-72
2024/02/15 11:20:10;;;;;;;5.50;3.10;;;;;;;-5.92;100.00;100929.44;4993644;28;20200;-72
2024/02/15 11:22:42;;;;;;;6.87;3.90;;;;;;;-5.90;100.00;100926.84;5010027;28;20489;-74
2024/02/15 11:25:16;;;;;;;6.57;3.33;;;;;;;-5.92;100.00;100938.97;4974825;28;20501;-75
2024/02/15 11:27:42;;;;;;;5.33;3.10;;;;;;;-5.98;100.00;100926.97;4988810;28;20153;-73
2024/02/15 11:30:09;;;;;;;6.73;3.53;;;;;;;-5.98;100.00;100919.22;4973808;28;20121;-74
2024/02/15 11:32:49;;;;;;;4.60;2.50;;;;;;;-5.81;100.00;100927.53;4987094;28;20060;-73